Time;durP1;ratioP1;P1;durP2;ratioP2;P2;SDS_P1;SDS_P2;PMS_P1;PMS_P2;Temp;Humidity;BMP_temperature;BMP_pressure;BME280_temperature;BME280_humidity;BME280_pressure;Samples;Min_cycle;Max_cycle;Signal;HPM_P1;HPM_P2
2023/08/06 00:01:25;;;;;;;7.10;3.90;;;;;;;;;;5026007;28;20029;-83
2023/08/06 00:03:50;;;;;;;4.15;3.50;;;;;;;;;;5023787;28;20120;-83
2023/08/06 00:06:16;;;;;;;4.72;3.75;;;;;;;;;;5023575;28;20133;-82
2023/08/06 00:08:41;;;;;;;7.25;3.80;;;;;;;;;;5028851;28;20026;-83
2023/08/06 00:11:06;;;;;;;4.47;3.38;;;;;;;;;;5025392;28;20459;-84
2023/08/06 00:13:32;;;;;;;7.07;3.65;;;;;;;;;;5018081;28;20093;-83
2023/08/06 00:16:09;;;;;;;4.10;3.45;;;;;;;;;;5022641;28;20029;-84
2023/08/06 00:18:34;;;;;;;6.80;3.35;;;;;;;;;;5025523;28;20040;-83
2023/08/06 00:20:59;;;;;;;6.00;3.58;;;;;;;;;;5018651;28;20033;-82
2023/08/06 00:23:24;;;;;;;9.88;3.38;;;;;;;;;;5020575;28;20032;-82
2023/08/06 00:25:50;;;;;;;4.53;3.40;;;;;;;;;;5025657;28;20119;-84
2023/08/06 00:28:15;;;;;;;5.03;3.80;;;;;;;;;;5024825;28;20089;-82
2023/08/06 00:30:40;;;;;;;8.50;3.15;;;;;;;;;;5020368;28;20035;-83
2023/08/06 00:33:06;;;;;;;9.48;3.90;;;;;;;;;;5023452;28;20457;-83
2023/08/06 00:35:31;;;;;;;4.70;2.88;;;;;;;;;;5019259;28;20395;-83
2023/08/06 00:37:56;;;;;;;5.38;3.08;;;;;;;;;;5003187;28;20049;-85
2023/08/06 00:40:22;;;;;;;3.55;2.53;;;;;;;;;;5020698;28;20029;-85
2023/08/06 00:42:48;;;;;;;10.30;2.53;;;;;;;;;;5020462;28;20033;-85
2023/08/06 00:45:13;;;;;;;3.75;2.55;;;;;;;;;;5018345;28;20033;-82
2023/08/06 00:47:39;;;;;;;3.35;2.50;;;;;;;;;;5002613;28;20029;-82
2023/08/06 00:50:06;;;;;;;2.88;2.42;;;;;;;;;;5026068;28;20143;-84
2023/08/06 00:52:32;;;;;;;3.70;2.88;;;;;;;;;;5004574;28;20059;-84
2023/08/06 00:54:57;;;;;;;6.43;2.88;;;;;;;;;;5021434;28;20136;-84
2023/08/06 00:57:25;;;;;;;3.20;2.63;;;;;;;;;;5019669;28;20030;-83
2023/08/06 00:59:51;;;;;;;4.07;2.40;;;;;;;;;;5029660;28;20025;-83
2023/08/06 01:02:16;;;;;;;2.70;2.45;;;;;;;;;;5009555;28;20032;-83
2023/08/06 01:04:41;;;;;;;5.90;2.67;;;;;;;;;;5020128;28;20092;-83
2023/08/06 01:07:30;;;;;;;3.80;2.53;;;;;;;;;;5016731;28;20038;-83
2023/08/06 01:10:00;;;;;;;6.15;2.80;;;;;;;;;;5019403;28;20592;-83
2023/08/06 01:12:38;;;;;;;5.15;2.55;;;;;;;;;;5017784;28;20034;-83
2023/08/06 01:15:19;;;;;;;4.22;2.10;;;;;;;;;;5021378;28;20030;-83
2023/08/06 01:17:45;;;;;;;2.75;2.22;;;;;;;;;;5024764;28;20070;-83
2023/08/06 01:20:11;;;;;;;2.97;2.42;;;;;;;;;;5024840;28;20490;-83
2023/08/06 01:22:36;;;;;;;3.47;2.17;;;;;;;;;;5020678;28;20033;-83
2023/08/06 01:25:02;;;;;;;4.45;2.40;;;;;;;;;;5014448;28;20025;-82
2023/08/06 01:27:38;;;;;;;2.63;2.30;;;;;;;;;;5015560;28;20130;-83
2023/08/06 01:30:13;;;;;;;4.03;2.50;;;;;;;;;;5002567;28;20026;-83
2023/08/06 01:32:44;;;;;;;4.55;2.63;;;;;;;;;;5036105;28;20030;-84
2023/08/06 01:35:11;;;;;;;5.55;2.55;;;;;;;;;;5021538;28;20044;-84
2023/08/06 01:37:37;;;;;;;3.10;2.10;;;;;;;;;;5028081;28;20037;-84
2023/08/06 01:40:15;;;;;;;2.85;2.22;;;;;;;;;;5010756;28;20036;-83
2023/08/06 01:42:41;;;;;;;2.78;2.20;;;;;;;;;;5018205;28;20022;-83
2023/08/06 01:45:07;;;;;;;3.47;2.70;;;;;;;;;;5011170;28;20077;-84
2023/08/06 01:47:33;;;;;;;2.97;2.53;;;;;;;;;;5027722;28;20037;-83
2023/08/06 01:49:58;;;;;;;4.30;2.25;;;;;;;;;;5029508;28;20107;-84
2023/08/06 01:52:23;;;;;;;4.47;2.53;;;;;;;;;;5036086;28;20047;-84
2023/08/06 01:54:49;;;;;;;3.50;2.17;;;;;;;;;;5031877;28;20069;-84
2023/08/06 01:57:14;;;;;;;2.95;2.55;;;;;;;;;;5026898;28;20036;-84
2023/08/06 01:59:40;;;;;;;2.47;1.98;;;;;;;;;;5026328;28;20047;-84
2023/08/06 02:02:05;;;;;;;4.38;2.30;;;;;;;;;;5023996;28;20501;-84
2023/08/06 02:04:30;;;;;;;2.40;1.88;;;;;;;;;;5030971;28;20025;-84
2023/08/06 02:06:56;;;;;;;2.60;2.10;;;;;;;;;;5028249;28;20095;-84
2023/08/06 02:09:21;;;;;;;2.10;1.90;;;;;;;;;;5031504;28;20029;-84
2023/08/06 02:11:46;;;;;;;2.60;1.80;;;;;;;;;;5027672;28;20026;-83
2023/08/06 02:14:12;;;;;;;3.25;1.90;;;;;;;;;;5021427;28;20030;-83
2023/08/06 02:16:37;;;;;;;4.63;2.13;;;;;;;;;;5014291;28;20026;-83
2023/08/06 02:19:02;;;;;;;2.85;2.25;;;;;;;;;;5027236;28;20415;-83
2023/08/06 02:21:28;;;;;;;3.15;2.03;;;;;;;;;;5017495;28;20037;-84
2023/08/06 02:23:53;;;;;;;1.95;1.70;;;;;;;;;;5028976;28;20451;-83
2023/08/06 02:26:18;;;;;;;2.20;1.83;;;;;;;;;;5022319;28;20041;-82
2023/08/06 02:28:44;;;;;;;3.45;1.67;;;;;;;;;;5021846;28;20107;-84
2023/08/06 02:31:09;;;;;;;2.97;1.83;;;;;;;;;;5027564;28;20483;-82
2023/08/06 02:33:36;;;;;;;2.55;1.77;;;;;;;;;;5024299;28;20033;-83
2023/08/06 02:36:05;;;;;;;4.75;1.58;;;;;;;;;;5031450;28;20065;-82
2023/08/06 02:38:31;;;;;;;3.55;1.85;;;;;;;;;;5028849;28;20033;-83
2023/08/06 02:40:57;;;;;;;1.70;1.50;;;;;;;;;;5022392;28;20064;-82
2023/08/06 02:43:22;;;;;;;2.53;1.85;;;;;;;;;;5018053;28;20026;-83
2023/08/06 02:45:47;;;;;;;3.80;1.65;;;;;;;;;;5026889;28;20083;-83
2023/08/06 02:48:13;;;;;;;4.00;1.98;;;;;;;;;;5025834;28;20048;-82
2023/08/06 02:50:41;;;;;;;4.05;1.98;;;;;;;;;;5014940;28;20025;-82
2023/08/06 02:53:07;;;;;;;2.70;1.90;;;;;;;;;;5011350;28;20041;-82
2023/08/06 02:55:33;;;;;;;3.63;2.20;;;;;;;;;;5001278;28;20037;-82
2023/08/06 02:58:02;;;;;;;2.45;1.98;;;;;;;;;;5014936;28;20461;-82
2023/08/06 03:00:28;;;;;;;2.30;1.88;;;;;;;;;;5018239;28;20029;-82
2023/08/06 03:02:53;;;;;;;5.68;2.00;;;;;;;;;;5020488;28;20022;-83
2023/08/06 03:05:19;;;;;;;3.97;2.00;;;;;;;;;;5018609;28;20096;-83
2023/08/06 03:07:44;;;;;;;2.38;1.50;;;;;;;;;;5018119;28;20034;-83
2023/08/06 03:10:10;;;;;;;3.83;2.15;;;;;;;;;;5005456;28;20025;-83
2023/08/06 03:12:35;;;;;;;2.45;1.83;;;;;;;;;;5011530;28;20034;-84
2023/08/06 03:15:01;;;;;;;2.78;1.67;;;;;;;;;;5023890;28;20026;-84
2023/08/06 03:17:26;;;;;;;2.35;1.83;;;;;;;;;;5026747;28;20033;-83
2023/08/06 03:19:51;;;;;;;3.92;2.17;;;;;;;;;;5011881;28;20144;-84
2023/08/06 03:22:17;;;;;;;2.58;2.00;;;;;;;;;;5035360;28;20025;-82
2023/08/06 03:24:42;;;;;;;4.53;2.47;;;;;;;;;;5029590;28;20093;-82
2023/08/06 03:27:07;;;;;;;2.78;2.13;;;;;;;;;;5023914;28;20025;-83
2023/08/06 03:29:33;;;;;;;2.90;2.10;;;;;;;;;;5027795;28;20037;-83
2023/08/06 03:31:58;;;;;;;2.90;2.30;;;;;;;;;;5028745;28;20601;-84
2023/08/06 03:34:23;;;;;;;3.00;2.33;;;;;;;;;;5025140;28;20044;-83
2023/08/06 03:36:49;;;;;;;2.80;2.17;;;;;;;;;;5024104;28;20041;-83
2023/08/06 03:39:14;;;;;;;2.40;1.73;;;;;;;;;;5030317;28;20034;-83
2023/08/06 03:41:40;;;;;;;3.33;2.20;;;;;;;;;;5028799;28;20029;-82
2023/08/06 03:44:05;;;;;;;2.95;2.20;;;;;;;;;;5028052;28;20044;-83
2023/08/06 03:46:33;;;;;;;2.85;2.30;;;;;;;;;;5008330;28;20059;-82
2023/08/06 03:48:59;;;;;;;4.07;2.40;;;;;;;;;;5031268;28;20104;-82
2023/08/06 03:51:24;;;;;;;3.75;2.20;;;;;;;;;;5028936;28;20491;-83
2023/08/06 03:53:50;;;;;;;2.03;1.60;;;;;;;;;;5024604;28;20040;-83
2023/08/06 03:56:15;;;;;;;3.67;2.13;;;;;;;;;;5030386;28;20032;-83
2023/08/06 03:58:40;;;;;;;7.18;2.10;;;;;;;;;;5026958;28;20057;-83
2023/08/06 04:01:06;;;;;;;4.20;2.20;;;;;;;;;;5030524;28;20022;-82
2023/08/06 04:03:31;;;;;;;2.22;2.00;;;;;;;;;;5026131;28;20033;-83
2023/08/06 04:05:56;;;;;;;2.60;1.95;;;;;;;;;;5027459;28;20087;-84
2023/08/06 04:08:22;;;;;;;5.45;1.90;;;;;;;;;;5023750;28;20041;-83
2023/08/06 04:10:53;;;;;;;6.30;2.22;;;;;;;;;;5030426;28;20472;-82
2023/08/06 04:13:19;;;;;;;1.83;1.73;;;;;;;;;;5010753;28;20391;-82
2023/08/06 04:15:44;;;;;;;5.43;1.75;;;;;;;;;;5026503;28;20117;-83
2023/08/06 04:18:10;;;;;;;2.75;1.63;;;;;;;;;;5029875;28;20098;-84
2023/08/06 04:20:42;;;;;;;3.22;2.22;;;;;;;;;;5022562;28;20060;-83
2023/08/06 04:23:08;;;;;;;2.38;1.95;;;;;;;;;;5026714;28;20426;-83
2023/08/06 04:25:33;;;;;;;7.43;1.92;;;;;;;;;;5025950;28;20034;-83
2023/08/06 04:27:58;;;;;;;4.15;1.60;;;;;;;;;;5024073;28;20042;-83
2023/08/06 04:30:23;;;;;;;2.10;1.48;;;;;;;;;;5023506;28;20025;-84
2023/08/06 04:32:50;;;;;;;2.88;1.60;;;;;;;;;;5027535;28;20042;-83
2023/08/06 04:35:15;;;;;;;1.98;1.77;;;;;;;;;;5026074;28;20051;-83
2023/08/06 04:37:41;;;;;;;4.97;2.00;;;;;;;;;;5024913;28;20033;-84
2023/08/06 04:40:07;;;;;;;2.38;1.40;;;;;;;;;;5026711;28;20014;-83
2023/08/06 04:42:32;;;;;;;1.77;1.55;;;;;;;;;;5010770;28;20037;-84
2023/08/06 04:44:57;;;;;;;2.70;1.77;;;;;;;;;;5027345;28;20041;-84
2023/08/06 04:47:23;;;;;;;2.10;1.42;;;;;;;;;;5028085;28;20063;-84
2023/08/06 04:49:48;;;;;;;3.55;1.45;;;;;;;;;;5029273;28;20041;-82
2023/08/06 04:52:13;;;;;;;1.98;1.70;;;;;;;;;;5012573;28;20567;-82
2023/08/06 04:54:39;;;;;;;6.10;1.60;;;;;;;;;;5014790;28;20033;-82
2023/08/06 04:57:04;;;;;;;4.10;1.75;;;;;;;;;;5021745;28;20037;-83
2023/08/06 04:59:30;;;;;;;3.30;1.40;;;;;;;;;;5028661;28;20033;-84
2023/08/06 05:01:55;;;;;;;3.88;1.70;;;;;;;;;;5025659;28;20160;-84
2023/08/06 05:04:20;;;;;;;2.83;1.85;;;;;;;;;;5010292;28;20014;-84
2023/08/06 05:06:46;;;;;;;2.10;1.40;;;;;;;;;;5029520;28;20045;-84
2023/08/06 05:09:11;;;;;;;4.35;2.20;;;;;;;;;;5011386;28;20028;-84
2023/08/06 05:11:36;;;;;;;3.22;1.60;;;;;;;;;;5021947;28;20040;-83
2023/08/06 05:14:02;;;;;;;2.50;1.77;;;;;;;;;;5025706;28;20077;-83
2023/08/06 05:16:28;;;;;;;2.90;1.58;;;;;;;;;;5012528;28;20030;-83
2023/08/06 05:18:53;;;;;;;4.68;1.80;;;;;;;;;;5030158;28;20037;-83
2023/08/06 05:21:18;;;;;;;2.50;1.30;;;;;;;;;;5031041;28;20148;-83
2023/08/06 05:23:44;;;;;;;2.10;1.70;;;;;;;;;;5033681;28;20049;-84
2023/08/06 05:26:09;;;;;;;2.97;1.55;;;;;;;;;;5033783;28;20064;-83
2023/08/06 05:28:35;;;;;;;2.45;1.75;;;;;;;;;;5032728;28;20109;-84
2023/08/06 05:31:04;;;;;;;2.03;1.40;;;;;;;;;;5012348;28;20029;-84
2023/08/06 05:33:30;;;;;;;3.75;1.90;;;;;;;;;;5030293;28;20032;-84
2023/08/06 05:35:55;;;;;;;2.20;1.48;;;;;;;;;;5033804;28;20081;-83
2023/08/06 05:38:21;;;;;;;2.75;1.73;;;;;;;;;;5033533;28;20066;-83
2023/08/06 05:40:46;;;;;;;3.45;1.67;;;;;;;;;;5034377;28;20137;-83
2023/08/06 05:43:11;;;;;;;3.90;2.00;;;;;;;;;;5027321;28;20060;-82
2023/08/06 05:45:37;;;;;;;2.20;1.50;;;;;;;;;;5027447;28;20064;-83
2023/08/06 05:48:02;;;;;;;1.60;1.40;;;;;;;;;;5033653;28;20550;-82
2023/08/06 05:50:27;;;;;;;2.50;1.40;;;;;;;;;;5032962;28;20122;-82
2023/08/06 05:52:53;;;;;;;1.30;1.20;;;;;;;;;;5030153;28;20518;-82
2023/08/06 05:55:19;;;;;;;4.00;1.50;;;;;;;;;;5031788;28;20479;-82
2023/08/06 05:57:45;;;;;;;3.00;1.20;;;;;;;;;;5009117;28;20033;-83
2023/08/06 06:00:11;;;;;;;4.15;1.30;;;;;;;;;;5026679;28;20033;-83
2023/08/06 06:02:36;;;;;;;1.27;1.00;;;;;;;;;;5022597;28;20497;-83
2023/08/06 06:05:01;;;;;;;3.50;1.23;;;;;;;;;;5026079;28;20486;-83
2023/08/06 06:07:27;;;;;;;6.47;1.40;;;;;;;;;;5025422;28;20422;-82
2023/08/06 06:09:52;;;;;;;1.30;0.90;;;;;;;;;;5024850;28;20061;-82
2023/08/06 06:12:18;;;;;;;5.28;1.25;;;;;;;;;;5022061;28;20108;-82
2023/08/06 06:14:43;;;;;;;1.27;0.70;;;;;;;;;;5025246;28;20021;-82
2023/08/06 06:17:08;;;;;;;1.58;0.73;;;;;;;;;;5024817;28;20033;-82
2023/08/06 06:19:34;;;;;;;0.88;0.65;;;;;;;;;;5025733;28;20155;-82
2023/08/06 06:21:59;;;;;;;1.08;0.93;;;;;;;;;;5032080;28;20083;-83
2023/08/06 06:24:25;;;;;;;3.72;0.82;;;;;;;;;;5010483;28;20750;-83
2023/08/06 06:26:50;;;;;;;1.02;0.55;;;;;;;;;;5028426;28;20030;-85
2023/08/06 06:29:15;;;;;;;0.55;0.52;;;;;;;;;;5024426;28;20112;-84
2023/08/06 06:31:41;;;;;;;0.85;0.73;;;;;;;;;;5029722;28;20030;-84
2023/08/06 06:34:06;;;;;;;5.47;0.73;;;;;;;;;;5024526;28;20040;-84
2023/08/06 06:36:31;;;;;;;1.23;0.90;;;;;;;;;;5026079;28;20051;-84
2023/08/06 06:38:57;;;;;;;0.50;0.50;;;;;;;;;;5027771;28;20045;-86
2023/08/06 06:41:22;;;;;;;0.30;0.30;;;;;;;;;;5027908;28;20100;-85
2023/08/06 06:43:47;;;;;;;1.58;0.82;;;;;;;;;;5012328;28;20044;-83
2023/08/06 06:46:12;;;;;;;1.35;0.77;;;;;;;;;;5028967;28;20496;-85
2023/08/06 06:48:38;;;;;;;0.85;0.40;;;;;;;;;;5009680;28;20053;-85
2023/08/06 06:51:03;;;;;;;1.73;0.35;;;;;;;;;;5031492;28;21352;-84
2023/08/06 06:53:29;;;;;;;5.00;0.70;;;;;;;;;;5008538;28;20395;-83
2023/08/06 06:56:04;;;;;;;0.80;0.60;;;;;;;;;;5011923;28;20483;-83
2023/08/06 06:58:30;;;;;;;0.50;0.50;;;;;;;;;;5022482;28;20083;-84
2023/08/06 07:00:55;;;;;;;2.03;0.47;;;;;;;;;;5026300;28;20403;-83
2023/08/06 07:03:20;;;;;;;0.30;0.30;;;;;;;;;;5004955;28;20087;-82
2023/08/06 07:05:46;;;;;;;1.63;0.40;;;;;;;;;;5025112;28;20048;-84
2023/08/06 07:08:11;;;;;;;0.65;0.20;;;;;;;;;;5030711;28;20029;-85
2023/08/06 07:10:37;;;;;;;3.10;0.40;;;;;;;;;;5007157;28;20483;-83
2023/08/06 07:13:03;;;;;;;0.40;0.40;;;;;;;;;;5021829;28;20089;-83
2023/08/06 07:15:28;;;;;;;0.30;0.30;;;;;;;;;;5001486;28;20042;-84
2023/08/06 07:17:53;;;;;;;0.32;0.32;;;;;;;;;;5007366;28;20022;-83
2023/08/06 07:20:19;;;;;;;0.40;0.35;;;;;;;;;;5022003;28;20021;-84
2023/08/06 07:22:44;;;;;;;0.32;0.32;;;;;;;;;;5024707;28;20654;-84
2023/08/06 07:25:10;;;;;;;0.08;0.08;;;;;;;;;;5025160;28;20024;-84
2023/08/06 07:27:35;;;;;;;0.22;0.22;;;;;;;;;;5005700;28;20029;-84
2023/08/06 07:30:00;;;;;;;1.25;0.13;;;;;;;;;;5034074;28;20383;-83
2023/08/06 07:32:27;;;;;;;0.50;0.40;;;;;;;;;;5025979;28;20033;-82
2023/08/06 07:34:56;;;;;;;0.55;0.20;;;;;;;;;;5018299;28;20083;-83
2023/08/06 07:37:22;;;;;;;0.57;0.32;;;;;;;;;;5023078;28;20036;-83
2023/08/06 07:39:48;;;;;;;0.73;0.25;;;;;;;;;;5014155;28;20034;-83
2023/08/06 07:42:13;;;;;;;0.95;0.30;;;;;;;;;;5020130;28;20029;-82
2023/08/06 07:44:39;;;;;;;0.13;0.13;;;;;;;;;;5008653;28;20022;-84
2023/08/06 07:47:05;;;;;;;1.35;0.55;;;;;;;;;;5022592;28;20678;-83
2023/08/06 07:49:30;;;;;;;1.00;0.30;;;;;;;;;;5021360;28;20021;-83
2023/08/06 07:51:55;;;;;;;0.32;0.32;;;;;;;;;;5007769;28;20029;-83
2023/08/06 07:54:21;;;;;;;0.40;0.40;;;;;;;;;;5024135;28;20480;-83
2023/08/06 07:56:47;;;;;;;0.22;0.13;;;;;;;;;;5024053;28;20026;-84
2023/08/06 07:59:12;;;;;;;0.30;0.30;;;;;;;;;;5024573;28;20029;-84
2023/08/06 08:01:37;;;;;;;1.60;0.40;;;;;;;;;;5007296;28;20034;-83
2023/08/06 08:04:04;;;;;;;4.13;0.43;;;;;;;;;;5024474;28;20041;-83
2023/08/06 08:06:29;;;;;;;2.65;0.47;;;;;;;;;;5026610;28;20029;-82
2023/08/06 08:08:55;;;;;;;0.28;0.28;;;;;;;;;;5027868;28;20033;-83
2023/08/06 08:11:20;;;;;;;0.60;0.28;;;;;;;;;;5005461;28;20025;-84
2023/08/06 08:13:46;;;;;;;0.30;0.30;;;;;;;;;;5018015;28;20030;-83
2023/08/06 08:16:11;;;;;;;0.20;0.20;;;;;;;;;;5024426;28;20036;-83
2023/08/06 08:18:36;;;;;;;0.63;0.25;;;;;;;;;;5021967;28;20097;-83
2023/08/06 08:21:02;;;;;;;0.35;0.35;;;;;;;;;;5018599;28;20108;-83
2023/08/06 08:23:27;;;;;;;0.00;0.00;;;;;;;;;;5022841;28;20139;-83
2023/08/06 08:25:52;;;;;;;0.28;0.28;;;;;;;;;;5027170;28;20033;-83
2023/08/06 08:28:18;;;;;;;0.15;0.15;;;;;;;;;;5024728;28;20021;-83
2023/08/06 08:30:43;;;;;;;0.00;0.00;;;;;;;;;;5025317;28;20033;-83
2023/08/06 08:33:09;;;;;;;0.82;0.40;;;;;;;;;;5023561;28;20030;-84
2023/08/06 08:35:36;;;;;;;0.10;0.10;;;;;;;;;;5021955;28;20044;-82
2023/08/06 08:38:02;;;;;;;0.13;0.13;;;;;;;;;;5023029;28;20037;-83
2023/08/06 08:40:34;;;;;;;0.30;0.30;;;;;;;;;;5029377;28;20087;-83
2023/08/06 08:43:01;;;;;;;0.10;0.10;;;;;;;;;;5023793;28;20048;-84
2023/08/06 08:45:29;;;;;;;0.13;0.13;;;;;;;;;;5027783;28;20112;-83
2023/08/06 08:47:55;;;;;;;0.10;0.10;;;;;;;;;;5030420;28;20032;-82
2023/08/06 08:50:21;;;;;;;0.30;0.13;;;;;;;;;;5006044;28;20021;-82
2023/08/06 08:52:48;;;;;;;0.22;0.20;;;;;;;;;;5001332;28;20084;-83
2023/08/06 08:55:15;;;;;;;0.00;0.00;;;;;;;;;;5023037;28;20049;-83
2023/08/06 08:57:40;;;;;;;0.10;0.10;;;;;;;;;;5020882;28;20026;-83
2023/08/06 09:00:06;;;;;;;0.05;0.05;;;;;;;;;;5024292;28;20029;-83
2023/08/06 09:02:33;;;;;;;0.80;0.10;;;;;;;;;;5020523;28;20547;-82
2023/08/06 09:05:02;;;;;;;0.30;0.30;;;;;;;;;;5020060;28;20030;-83
2023/08/06 09:07:38;;;;;;;0.17;0.15;;;;;;;;;;5029990;28;20022;-85
2023/08/06 09:10:05;;;;;;;0.10;0.10;;;;;;;;;;5031134;28;20033;-84
2023/08/06 09:12:31;;;;;;;0.10;0.10;;;;;;;;;;5027470;28;20093;-84
2023/08/06 09:14:57;;;;;;;0.08;0.00;;;;;;;;;;5010324;28;20101;-84
2023/08/06 09:17:22;;;;;;;0.10;0.10;;;;;;;;;;5028623;28;20031;-82
2023/08/06 09:19:48;;;;;;;0.63;0.15;;;;;;;;;;5011860;28;20030;-84
2023/08/06 09:22:14;;;;;;;0.13;0.13;;;;;;;;;;5026210;28;20014;-84
2023/08/06 09:24:41;;;;;;;0.05;0.05;;;;;;;;;;5036116;28;20021;-84
2023/08/06 09:27:12;;;;;;;0.10;0.10;;;;;;;;;;5036323;28;20303;-83
2023/08/06 09:29:43;;;;;;;0.10;0.10;;;;;;;;;;5026413;28;20045;-84
2023/08/06 09:32:09;;;;;;;0.10;0.10;;;;;;;;;;5025000;28;20533;-83
2023/08/06 09:34:34;;;;;;;0.10;0.10;;;;;;;;;;5025532;28;20030;-84
2023/08/06 09:36:59;;;;;;;0.05;0.05;;;;;;;;;;5033300;28;20033;-83
2023/08/06 09:39:29;;;;;;;0.05;0.05;;;;;;;;;;5029205;28;20075;-82
2023/08/06 09:42:01;;;;;;;0.10;0.10;;;;;;;;;;5017977;28;20488;-83
2023/08/06 09:44:29;;;;;;;0.20;0.20;;;;;;;;;;5022322;28;20797;-83
2023/08/06 09:46:57;;;;;;;2.28;0.20;;;;;;;;;;5019171;28;20063;-83
2023/08/06 09:49:28;;;;;;;0.22;0.10;;;;;;;;;;5024471;28;20029;-83
2023/08/06 09:51:55;;;;;;;0.07;0.07;;;;;;;;;;5024040;28;20395;-83
2023/08/06 09:54:23;;;;;;;0.17;0.17;;;;;;;;;;5022563;28;20292;-83
2023/08/06 09:56:49;;;;;;;0.35;0.00;;;;;;;;;;5027633;28;20033;-84
2023/08/06 09:59:15;;;;;;;0.10;0.10;;;;;;;;;;5022177;28;20078;-83
2023/08/06 10:01:41;;;;;;;0.38;0.20;;;;;;;;;;5025832;28;20025;-83
2023/08/06 10:04:14;;;;;;;0.10;0.10;;;;;;;;;;5029603;28;20033;-83
2023/08/06 10:06:40;;;;;;;0.73;0.10;;;;;;;;;;5013609;28;20037;-83
2023/08/06 10:09:07;;;;;;;0.00;0.00;;;;;;;;;;5032339;28;20044;-83
2023/08/06 10:11:33;;;;;;;0.15;0.15;;;;;;;;;;5032629;28;20029;-84
2023/08/06 10:14:05;;;;;;;0.10;0.10;;;;;;;;;;5022777;28;20120;-84
2023/08/06 10:16:30;;;;;;;;;;;;;;;;;;5029070;28;20619;-83
2023/08/06 10:18:57;;;;;;;0.10;0.10;;;;;;;;;;5018971;28;19995;-83
2023/08/06 10:21:24;;;;;;;0.00;0.00;;;;;;;;;;5022496;28;20029;-82
2023/08/06 10:23:54;;;;;;;0.10;0.10;;;;;;;;;;5024923;28;20082;-82
2023/08/06 10:26:19;;;;;;;0.00;0.00;;;;;;;;;;5007052;28;20247;-82
2023/08/06 10:28:45;;;;;;;0.10;0.10;;;;;;;;;;4999973;28;20693;-82
2023/08/06 10:31:10;;;;;;;0.10;0.10;;;;;;;;;;5034783;28;20045;-83
2023/08/06 10:33:44;;;;;;;0.10;0.10;;;;;;;;;;5026220;28;20070;-83
2023/08/06 10:36:10;;;;;;;0.00;0.00;;;;;;;;;;5008080;28;20495;-82
2023/08/06 10:38:43;;;;;;;0.10;0.10;;;;;;;;;;5024992;28;20055;-82
2023/08/06 10:41:15;;;;;;;0.10;0.10;;;;;;;;;;5022109;28;20029;-81
2023/08/06 10:43:43;;;;;;;0.10;0.10;;;;;;;;;;5020042;28;20030;-82
2023/08/06 10:46:26;;;;;;;0.17;0.17;;;;;;;;;;5032487;28;20041;-84
2023/08/06 10:48:52;;;;;;;0.20;0.20;;;;;;;;;;5027472;28;20036;-83
2023/08/06 10:51:17;;;;;;;0.55;0.10;;;;;;;;;;5027411;28;20112;-83
2023/08/06 10:53:44;;;;;;;1.65;0.25;;;;;;;;;;5033475;28;20034;-84
2023/08/06 10:56:17;;;;;;;0.00;0.00;;;;;;;;;;5030815;28;20025;-84
2023/08/06 10:58:44;;;;;;;0.20;0.20;;;;;;;;;;5034592;28;20022;-84
2023/08/06 11:01:13;;;;;;;0.10;0.10;;;;;;;;;;5033091;28;20025;-83
2023/08/06 11:03:39;;;;;;;0.35;0.35;;;;;;;;;;5005558;28;20030;-84
2023/08/06 11:06:07;;;;;;;0.40;0.40;;;;;;;;;;5028139;28;20523;-83
2023/08/06 11:08:37;;;;;;;0.35;0.35;;;;;;;;;;5031950;28;20064;-84
2023/08/06 11:11:13;;;;;;;0.47;0.47;;;;;;;;;;5022044;28;20116;-83
2023/08/06 11:13:46;;;;;;;1.02;0.40;;;;;;;;;;5018213;28;20113;-84
2023/08/06 11:16:14;;;;;;;0.40;0.40;;;;;;;;;;5023162;28;20037;-84
2023/08/06 11:18:40;;;;;;;0.40;0.40;;;;;;;;;;5024271;28;20457;-83
2023/08/06 11:21:06;;;;;;;0.75;0.55;;;;;;;;;;5025532;28;20038;-84
2023/08/06 11:23:31;;;;;;;0.75;0.60;;;;;;;;;;5019177;28;20040;-84
2023/08/06 11:25:57;;;;;;;1.05;0.50;;;;;;;;;;5028864;28;20045;-84
2023/08/06 11:28:23;;;;;;;0.57;0.57;;;;;;;;;;5026137;28;20522;-83
2023/08/06 11:30:49;;;;;;;0.80;0.80;;;;;;;;;;5020254;28;20029;-84
2023/08/06 11:33:25;;;;;;;0.60;0.57;;;;;;;;;;5027592;28;20042;-83
2023/08/06 11:35:51;;;;;;;0.50;0.50;;;;;;;;;;5026248;28;20567;-84
2023/08/06 11:38:18;;;;;;;2.05;0.82;;;;;;;;;;5007145;28;20105;-82
2023/08/06 11:40:45;;;;;;;0.75;0.75;;;;;;;;;;5022496;28;20069;-83
2023/08/06 11:43:11;;;;;;;0.60;0.60;;;;;;;;;;5023040;28;20034;-83
2023/08/06 11:45:36;;;;;;;0.95;0.70;;;;;;;;;;5017950;28;20093;-82
2023/08/06 11:48:02;;;;;;;0.60;0.60;;;;;;;;;;5023174;28;20087;-83
2023/08/06 11:50:28;;;;;;;0.32;0.32;;;;;;;;;;5018428;28;20029;-83
2023/08/06 11:52:58;;;;;;;0.70;0.70;;;;;;;;;;5025600;28;20029;-81
2023/08/06 11:55:24;;;;;;;1.70;0.90;;;;;;;;;;5027383;28;20415;-84
2023/08/06 11:57:50;;;;;;;0.80;0.68;;;;;;;;;;5023896;28;20105;-83
2023/08/06 12:00:17;;;;;;;1.85;1.15;;;;;;;;;;5025852;28;20057;-83
2023/08/06 12:02:46;;;;;;;1.77;0.85;;;;;;;;;;5027356;28;20022;-84
2023/08/06 12:05:15;;;;;;;1.23;1.13;;;;;;;;;;5030833;28;20036;-84
2023/08/06 12:07:42;;;;;;;1.63;1.10;;;;;;;;;;5028261;28;20025;-83
2023/08/06 12:10:08;;;;;;;2.60;1.10;;;;;;;;;;5026548;28;20029;-83
2023/08/06 12:12:34;;;;;;;1.90;1.13;;;;;;;;;;5028908;28;20037;-83
2023/08/06 12:15:00;;;;;;;1.30;1.20;;;;;;;;;;5026123;28;20037;-83
2023/08/06 12:17:25;;;;;;;3.53;1.27;;;;;;;;;;5025625;28;20111;-83
2023/08/06 12:19:51;;;;;;;1.38;1.20;;;;;;;;;;5023324;28;20117;-85
2023/08/06 12:22:17;;;;;;;1.17;0.95;;;;;;;;;;5000561;28;20041;-83
2023/08/06 12:24:44;;;;;;;3.05;1.30;;;;;;;;;;5002574;28;20079;-84
2023/08/06 12:27:10;;;;;;;1.95;1.10;;;;;;;;;;5021475;28;20410;-84
2023/08/06 12:29:37;;;;;;;1.17;1.08;;;;;;;;;;5026398;28;20096;-84
2023/08/06 12:32:03;;;;;;;2.88;1.48;;;;;;;;;;5022834;28;20594;-84
2023/08/06 12:34:29;;;;;;;3.60;1.67;;;;;;;;;;5013980;28;20049;-84
2023/08/06 12:36:54;;;;;;;2.22;1.10;;;;;;;;;;5002993;28;20041;-85
2023/08/06 12:39:19;;;;;;;1.08;1.05;;;;;;;;;;5028371;28;20438;-84
2023/08/06 12:41:45;;;;;;;3.70;1.20;;;;;;;;;;5033455;28;20486;-84
2023/08/06 12:44:11;;;;;;;2.75;1.23;;;;;;;;;;5029164;28;20021;-83
2023/08/06 12:46:37;;;;;;;1.13;1.02;;;;;;;;;;5029662;28;20078;-84
2023/08/06 12:49:02;;;;;;;1.23;1.13;;;;;;;;;;5023194;28;20128;-84
2023/08/06 12:51:28;;;;;;;1.77;1.10;;;;;;;;;;5007017;28;20121;-82
2023/08/06 12:53:53;;;;;;;1.33;1.02;;;;;;;;;;5028746;28;20033;-84
2023/08/06 12:56:18;;;;;;;2.03;0.80;;;;;;;;;;5025223;28;20044;-83
2023/08/06 12:58:44;;;;;;;0.98;0.77;;;;;;;;;;5025555;28;20037;-83
2023/08/06 13:01:09;;;;;;;0.90;0.90;;;;;;;;;;5030202;28;20064;-83
2023/08/06 13:03:35;;;;;;;3.78;1.27;;;;;;;;;;5008267;28;20077;-83
2023/08/06 13:06:00;;;;;;;1.20;0.90;;;;;;;;;;5022774;28;20808;-84
2023/08/06 13:08:25;;;;;;;0.73;0.70;;;;;;;;;;5021937;28;20052;-82
2023/08/06 13:10:51;;;;;;;1.63;0.68;;;;;;;;;;5036484;28;20022;-83
2023/08/06 13:13:16;;;;;;;1.73;1.10;;;;;;;;;;5034300;28;20026;-83
2023/08/06 13:15:41;;;;;;;1.77;0.90;;;;;;;;;;5038403;28;20029;-83
2023/08/06 13:18:07;;;;;;;1.15;1.00;;;;;;;;;;5030876;28;20025;-83
2023/08/06 13:20:32;;;;;;;2.88;1.02;;;;;;;;;;5038520;28;20033;-83
2023/08/06 13:23:00;;;;;;;2.30;0.90;;;;;;;;;;5016883;28;20041;-83
2023/08/06 13:25:26;;;;;;;1.08;0.80;;;;;;;;;;5023917;28;20096;-83
2023/08/06 13:27:52;;;;;;;0.70;0.68;;;;;;;;;;5006851;28;20048;-83
2023/08/06 13:30:18;;;;;;;0.60;0.60;;;;;;;;;;5005203;28;20487;-84
2023/08/06 13:32:44;;;;;;;1.10;0.52;;;;;;;;;;5024626;28;20032;-84
2023/08/06 13:35:09;;;;;;;0.77;0.50;;;;;;;;;;5021469;28;20029;-83
2023/08/06 13:37:35;;;;;;;2.10;0.73;;;;;;;;;;5024413;28;20033;-82
2023/08/06 13:40:00;;;;;;;0.43;0.40;;;;;;;;;;5038722;28;20691;-83
2023/08/06 13:42:25;;;;;;;0.50;0.50;;;;;;;;;;5039307;28;20752;-83
2023/08/06 13:44:51;;;;;;;3.17;0.50;;;;;;;;;;5024543;28;20426;-82
2023/08/06 13:47:16;;;;;;;0.43;0.30;;;;;;;;;;5021759;28;20483;-83
2023/08/06 13:49:41;;;;;;;0.40;0.40;;;;;;;;;;5024993;28;20036;-83
2023/08/06 13:52:07;;;;;;;0.50;0.50;;;;;;;;;;5023293;28;20256;-82
2023/08/06 13:54:32;;;;;;;0.20;0.20;;;;;;;;;;5027617;28;20059;-83
2023/08/06 13:56:57;;;;;;;0.50;0.50;;;;;;;;;;5022420;28;20048;-82
2023/08/06 13:59:24;;;;;;;0.75;0.52;;;;;;;;;;5026481;28;20101;-82
2023/08/06 14:01:50;;;;;;;0.50;0.45;;;;;;;;;;5015645;28;20022;-83
2023/08/06 14:04:15;;;;;;;0.38;0.35;;;;;;;;;;5027551;28;20055;-82
2023/08/06 14:06:40;;;;;;;0.60;0.50;;;;;;;;;;5020829;28;20025;-82
2023/08/06 14:09:06;;;;;;;1.05;0.47;;;;;;;;;;5028738;28;20056;-82
2023/08/06 14:11:31;;;;;;;0.63;0.45;;;;;;;;;;5029874;28;20041;-81
2023/08/06 14:13:57;;;;;;;0.68;0.68;;;;;;;;;;5005649;28;20029;-83
2023/08/06 14:16:22;;;;;;;0.88;0.77;;;;;;;;;;5025530;28;20029;-83
2023/08/06 14:18:48;;;;;;;0.85;0.57;;;;;;;;;;5031860;28;20033;-81
2023/08/06 14:21:14;;;;;;;1.10;0.60;;;;;;;;;;5035300;28;20038;-83
2023/08/06 14:23:41;;;;;;;1.45;0.63;;;;;;;;;;5024333;28;20037;-82
2023/08/06 14:26:07;;;;;;;0.50;0.40;;;;;;;;;;5007024;28;20040;-83
2023/08/06 14:28:32;;;;;;;0.70;0.70;;;;;;;;;;5002240;28;20025;-80
2023/08/06 14:30:57;;;;;;;0.70;0.60;;;;;;;;;;5006451;28;20419;-80
2023/08/06 14:33:23;;;;;;;2.15;0.80;;;;;;;;;;5023117;28;20029;-80
2023/08/06 14:35:48;;;;;;;0.65;0.63;;;;;;;;;;5001048;28;20068;-83
2023/08/06 14:38:13;;;;;;;0.85;0.40;;;;;;;;;;5023372;28;20156;-83